Terminal Aerodrome Forecast
Issued by NWS

Home | Current Version | Previous Version | Graphics & Text | Print | Product List | Glossary On
Versions: 1 2 3 4 5 6 7 8 9 10 11 12 13 14 15 16 17 18 19
000
FTUS43 KGRB 170131 AAA
TAFMTW
TAF AMD
KMTW 170131Z 1702/1724 11005KT 5SM -RA BR OVC012
      TEMPO 1702/1705 1SM -FZRA BR BKN005
     FM170500 08008G15KT 1 1/2SM -RA BR OVC005
     FM170800 04008G15KT 1 1/2SM -RA BR OVC003
     FM171500 36008G15KT 2SM -RA BR OVC010
     FM172000 33007KT P6SM BKN030=

USA.gov is the U.S. government's official web portal to all federal, state and local government web resources and services.